createdAt,value
2023-03-29T00:00:14.122Z,6.20
2023-03-29T00:02:42.626Z,6.20
2023-03-29T00:05:10.907Z,6.20
2023-03-29T00:07:37.844Z,6.20
2023-03-29T00:10:12.523Z,6.20
2023-03-29T00:12:41.574Z,6.20
2023-03-29T00:15:09.252Z,6.20
2023-03-29T00:17:38.260Z,6.20
2023-03-29T00:20:10.248Z,6.20
2023-03-29T00:22:42.044Z,6.20
2023-03-29T00:25:11.932Z,6.20
2023-03-29T00:27:38.932Z,6.20
2023-03-29T00:30:10.397Z,6.20
2023-03-29T00:32:39.025Z,6.20
2023-03-29T00:35:06.529Z,6.20
2023-03-29T00:37:33.792Z,6.20
2023-03-29T00:40:00.887Z,6.20
2023-03-29T00:42:29.440Z,6.20
2023-03-29T00:45:06.113Z,6.30
2023-03-29T00:47:38.422Z,6.30
2023-03-29T00:50:13.199Z,6.30
2023-03-29T00:52:42.406Z,6.30
2023-03-29T00:55:15.856Z,6.40
2023-03-29T00:57:46.515Z,6.30
2023-03-29T01:00:22.811Z,6.40
2023-03-29T01:02:54.483Z,6.40
2023-03-29T01:05:39.467Z,6.40
2023-03-29T01:08:11.260Z,6.40
2023-03-29T01:10:51.936Z,6.40
2023-03-29T01:13:27.131Z,6.40
2023-03-29T01:16:09.452Z,6.50
2023-03-29T01:18:36.485Z,6.40
2023-03-29T01:21:32.422Z,6.50
2023-03-29T01:24:16.293Z,6.50
2023-03-29T01:26:53.623Z,6.60
2023-03-29T01:29:25.708Z,6.60
2023-03-29T01:32:01.498Z,6.60
2023-03-29T01:35:04.661Z,6.60
2023-03-29T01:38:04.382Z,6.60
2023-03-29T01:40:35.145Z,6.70
2023-03-29T01:43:11.967Z,6.70
2023-03-29T01:45:45.743Z,6.70
2023-03-29T01:48:19.791Z,6.70
2023-03-29T01:50:50.954Z,6.70
2023-03-29T01:53:24.810Z,6.70
2023-03-29T01:55:55.395Z,6.70
2023-03-29T01:58:27.111Z,6.80
2023-03-29T02:01:25.165Z,6.80
2023-03-29T02:04:06.397Z,6.80
2023-03-29T02:06:35.100Z,6.80
2023-03-29T02:09:04.845Z,6.80
2023-03-29T02:11:32.137Z,6.90
2023-03-29T02:13:59.336Z,6.90
2023-03-29T02:16:28.087Z,6.90
2023-03-29T02:19:01.650Z,6.90
2023-03-29T02:21:34.134Z,6.90
2023-03-29T02:24:15.530Z,6.90
2023-03-29T02:26:45.992Z,6.90
2023-03-29T02:29:16.472Z,6.90
2023-03-29T02:31:51.303Z,6.90
2023-03-29T02:37:44.205Z,6.90
2023-03-29T02:40:13.275Z,7.00
2023-03-29T02:42:41.526Z,7.00
2023-03-29T02:45:17.222Z,7.00
2023-03-29T02:47:59.028Z,7.00
2023-03-29T02:50:43.737Z,7.10
2023-03-29T02:53:16.219Z,7.10
2023-03-29T02:55:50.009Z,7.20
2023-03-29T02:58:17.070Z,7.10
2023-03-29T03:00:46.970Z,7.10
2023-03-29T03:03:16.776Z,7.10
2023-03-29T03:05:44.680Z,7.10
2023-03-29T03:08:11.612Z,7.10
2023-03-29T03:10:39.328Z,7.10
2023-03-29T03:13:06.903Z,7.10
2023-03-29T03:15:38.416Z,7.20
2023-03-29T03:18:05.607Z,7.20
2023-03-29T03:20:34.770Z,7.20
2023-03-29T03:23:03.640Z,7.20
2023-03-29T03:25:31.555Z,7.20
2023-03-29T03:27:59.024Z,7.20
2023-03-29T03:30:26.346Z,7.20
2023-03-29T03:32:54.924Z,7.20
2023-03-29T03:35:22.831Z,7.20
2023-03-29T03:37:52.167Z,7.20
2023-03-29T03:40:23.074Z,7.20
2023-03-29T03:43:07.375Z,7.20
2023-03-29T03:45:35.211Z,7.20
2023-03-29T03:48:02.100Z,7.20
2023-03-29T03:50:29.110Z,7.20
2023-03-29T03:52:57.700Z,7.20
2023-03-29T03:55:24.563Z,7.20
2023-03-29T03:57:52.117Z,7.20
2023-03-29T04:00:19.343Z,7.30
2023-03-29T04:02:49.990Z,7.30
2023-03-29T04:05:20.643Z,7.30
2023-03-29T04:07:50.347Z,7.30
2023-03-29T04:10:18.715Z,7.20
2023-03-29T04:12:46.166Z,7.30
2023-03-29T04:15:13.426Z,7.30
2023-03-29T04:17:41.170Z,7.30
2023-03-29T04:20:12.075Z,7.30
2023-03-29T04:22:39.660Z,7.30
2023-03-29T04:25:12.404Z,7.30
2023-03-29T04:27:43.201Z,7.30
2023-03-29T04:30:32.658Z,7.30
2023-03-29T04:32:59.748Z,7.30
2023-03-29T04:35:36.855Z,7.30
2023-03-29T04:38:04.497Z,7.30
2023-03-29T04:40:31.731Z,7.30
2023-03-29T04:43:01.034Z,7.30
2023-03-29T04:45:28.756Z,7.40
2023-03-29T04:48:01.005Z,7.30
2023-03-29T04:50:28.149Z,7.30
2023-03-29T04:52:55.789Z,7.40
2023-03-29T04:55:22.669Z,7.40
2023-03-29T04:57:49.974Z,7.40
2023-03-29T05:00:20.441Z,7.40
2023-03-29T05:02:47.420Z,7.40
2023-03-29T05:05:15.221Z,7.40
2023-03-29T05:07:42.179Z,7.40
2023-03-29T05:10:09.736Z,7.40
2023-03-29T05:12:39.585Z,7.40
2023-03-29T05:15:08.340Z,7.40
2023-03-29T05:17:36.736Z,7.40
2023-03-29T05:20:09.519Z,7.50
2023-03-29T05:22:46.074Z,7.50
2023-03-29T05:25:15.939Z,7.50
2023-03-29T05:27:43.264Z,7.50
2023-03-29T05:30:22.406Z,7.50
2023-03-29T05:32:51.280Z,7.50
2023-03-29T05:35:18.159Z,7.50
2023-03-29T05:37:47.203Z,7.50
2023-03-29T05:40:16.425Z,7.60
2023-03-29T05:42:43.486Z,7.60
2023-03-29T05:45:11.631Z,7.60
2023-03-29T05:47:39.149Z,7.60
2023-03-29T05:50:12.502Z,7.60
2023-03-29T05:52:41.014Z,7.60
2023-03-29T05:55:11.347Z,7.60
2023-03-29T05:57:38.770Z,7.60
2023-03-29T06:00:23.961Z,7.70
2023-03-29T06:03:06.423Z,7.60
2023-03-29T06:05:41.794Z,7.60
2023-03-29T06:08:10.054Z,7.70
2023-03-29T06:10:37.458Z,7.70
2023-03-29T06:13:04.471Z,7.70
2023-03-29T06:15:31.995Z,7.80
2023-03-29T06:17:59.467Z,7.80
2023-03-29T06:20:26.361Z,7.90
2023-03-29T06:22:55.148Z,7.90
2023-03-29T06:25:44.586Z,7.90
2023-03-29T06:28:12.337Z,8.00
2023-03-29T06:30:56.510Z,8.10
2023-03-29T06:33:26.958Z,8.10
2023-03-29T06:36:01.891Z,8.10
2023-03-29T06:38:31.041Z,8.20
2023-03-29T06:41:02.621Z,8.20
2023-03-29T06:43:30.524Z,8.30
2023-03-29T06:45:57.458Z,8.40
2023-03-29T06:48:27.485Z,8.40
2023-03-29T06:50:57.570Z,8.40
2023-03-29T06:53:25.004Z,8.50
2023-03-29T06:55:55.869Z,8.50
2023-03-29T06:58:22.779Z,8.60
2023-03-29T07:00:55.065Z,8.60
2023-03-29T07:03:23.634Z,8.70
2023-03-29T07:05:52.011Z,8.70
2023-03-29T07:08:21.403Z,8.80
2023-03-29T07:10:52.879Z,8.90
2023-03-29T07:13:21.285Z,8.90
2023-03-29T07:15:48.389Z,8.90
2023-03-29T07:18:17.105Z,8.90
2023-03-29T07:20:44.956Z,9.00
2023-03-29T07:23:33.769Z,9.00
2023-03-29T07:26:03.394Z,9.10
2023-03-29T07:28:40.749Z,9.20
2023-03-29T07:31:11.698Z,9.20
2023-03-29T07:33:47.777Z,9.30
2023-03-29T07:36:18.092Z,9.30
2023-03-29T07:38:48.644Z,9.40
2023-03-29T07:41:18.460Z,9.40
2023-03-29T07:43:46.844Z,9.50
2023-03-29T07:46:16.436Z,9.60
2023-03-29T07:48:43.454Z,9.60
2023-03-29T07:51:10.652Z,9.60
2023-03-29T07:53:41.021Z,9.60
2023-03-29T07:56:09.102Z,9.70
2023-03-29T07:58:36.232Z,9.70
2023-03-29T08:01:11.534Z,9.70
2023-03-29T08:03:40.763Z,9.80
2023-03-29T08:06:08.175Z,9.80
2023-03-29T08:08:38.282Z,9.80
2023-03-29T08:11:08.818Z,9.90
2023-03-29T08:13:36.002Z,9.90
2023-03-29T08:16:06.789Z,9.90
2023-03-29T08:18:35.155Z,9.90
2023-03-29T08:21:07.291Z,10.00
2023-03-29T08:23:34.399Z,10.00
2023-03-29T08:26:01.781Z,10.10
2023-03-29T08:28:31.954Z,10.20
2023-03-29T08:31:00.410Z,10.20
2023-03-29T08:33:29.175Z,10.30
2023-03-29T08:35:56.956Z,10.30
2023-03-29T08:38:27.807Z,10.30
2023-03-29T08:40:57.670Z,10.40
2023-03-29T08:43:42.827Z,10.40
2023-03-29T08:46:28.975Z,10.40
2023-03-29T08:49:02.629Z,10.40
2023-03-29T08:51:33.817Z,10.40
2023-03-29T08:54:07.442Z,10.40
2023-03-29T08:56:37.308Z,10.50
2023-03-29T08:59:08.544Z,10.50
2023-03-29T09:01:37.724Z,10.60
2023-03-29T09:04:09.247Z,10.60
2023-03-29T09:06:38.840Z,10.70
2023-03-29T09:09:13.546Z,10.80
2023-03-29T09:12:04.052Z,10.80
2023-03-29T09:14:43.825Z,10.90
2023-03-29T09:17:22.896Z,11.00
2023-03-29T09:19:56.680Z,11.10
2023-03-29T09:22:31.990Z,11.10
2023-03-29T09:25:06.085Z,11.20
2023-03-29T09:27:39.109Z,11.20
2023-03-29T09:30:17.066Z,11.30
2023-03-29T09:32:52.140Z,11.30
2023-03-29T09:35:24.280Z,11.40
2023-03-29T09:37:53.202Z,11.50
2023-03-29T09:40:26.850Z,11.50
2023-03-29T09:42:56.018Z,11.60
2023-03-29T09:45:24.144Z,11.70
2023-03-29T09:47:55.182Z,11.80
2023-03-29T09:50:32.014Z,11.90
2023-03-29T09:52:59.691Z,12.00
2023-03-29T09:55:32.549Z,12.10
2023-03-29T09:58:02.695Z,12.10
2023-03-29T10:00:30.154Z,12.20
2023-03-29T10:03:00.022Z,12.10
2023-03-29T10:05:33.140Z,12.10
2023-03-29T10:08:02.224Z,12.00
2023-03-29T10:10:31.866Z,12.00
2023-03-29T10:13:01.203Z,12.00
2023-03-29T10:15:30.373Z,12.10
2023-03-29T10:17:59.636Z,12.20
2023-03-29T10:20:29.115Z,12.20
2023-03-29T10:22:58.806Z,12.20
2023-03-29T10:25:29.127Z,12.20
2023-03-29T10:28:03.073Z,12.20
2023-03-29T10:30:35.316Z,12.20
2023-03-29T10:33:03.307Z,12.20
2023-03-29T10:35:38.138Z,12.20
2023-03-29T10:38:10.609Z,12.30
2023-03-29T10:40:45.576Z,12.20
2023-03-29T10:43:20.231Z,12.20
2023-03-29T10:45:49.093Z,12.10
2023-03-29T10:48:25.129Z,12.00
2023-03-29T10:50:53.565Z,12.10
2023-03-29T10:53:26.234Z,12.10
2023-03-29T10:56:00.729Z,12.10
2023-03-29T10:58:59.801Z,12.20
2023-03-29T11:01:33.562Z,12.20
2023-03-29T11:04:30.928Z,12.30
2023-03-29T11:07:22.768Z,12.20
2023-03-29T11:10:01.548Z,12.20
2023-03-29T11:12:37.929Z,12.20
2023-03-29T11:15:18.330Z,12.20
2023-03-29T11:17:55.905Z,12.30
2023-03-29T11:20:31.847Z,12.30
2023-03-29T11:23:14.192Z,12.30
2023-03-29T11:25:50.145Z,12.40
2023-03-29T11:28:28.634Z,12.40
2023-03-29T11:31:03.351Z,12.50
2023-03-29T11:33:46.071Z,12.50
2023-03-29T11:36:17.764Z,12.50
2023-03-29T11:39:02.537Z,12.50
2023-03-29T11:41:34.925Z,12.40
2023-03-29T11:44:05.628Z,12.40
2023-03-29T11:46:35.374Z,12.40
2023-03-29T11:49:06.260Z,12.40
2023-03-29T11:51:38.106Z,12.50
2023-03-29T11:54:13.029Z,12.60
2023-03-29T11:56:48.132Z,12.60
2023-03-29T11:59:22.271Z,12.60
2023-03-29T12:01:50.828Z,12.60
2023-03-29T12:04:22.902Z,12.60
2023-03-29T12:07:01.149Z,12.70
2023-03-29T12:09:38.643Z,12.60
2023-03-29T12:12:10.714Z,12.60
2023-03-29T12:14:59.519Z,12.60
2023-03-29T12:17:31.642Z,12.50
2023-03-29T12:20:10.474Z,12.50
2023-03-29T12:22:38.183Z,12.50
2023-03-29T12:25:14.303Z,12.40
2023-03-29T12:27:59.028Z,12.50
2023-03-29T12:30:38.955Z,12.50
2023-03-29T12:33:30.684Z,12.50
2023-03-29T12:36:11.150Z,12.60
2023-03-29T12:38:38.423Z,12.60
2023-03-29T12:41:16.615Z,12.80
2023-03-29T12:43:43.792Z,12.80
2023-03-29T12:46:19.031Z,12.90
2023-03-29T12:49:07.679Z,13.00
2023-03-29T12:51:37.055Z,13.10
2023-03-29T12:54:15.958Z,13.20
2023-03-29T12:56:58.423Z,13.40
2023-03-29T12:59:38.721Z,13.40
2023-03-29T13:02:27.453Z,13.40
2023-03-29T13:04:56.597Z,13.50
2023-03-29T13:07:33.926Z,13.50
2023-03-29T13:10:07.778Z,13.70
2023-03-29T13:12:42.706Z,13.80
2023-03-29T13:15:26.072Z,13.90
2023-03-29T13:18:02.863Z,14.00
2023-03-29T13:20:45.678Z,14.20
2023-03-29T13:23:33.154Z,14.30
2023-03-29T13:26:22.080Z,14.40
2023-03-29T13:29:09.589Z,14.40
2023-03-29T13:31:41.761Z,14.40
2023-03-29T13:34:22.009Z,14.50
2023-03-29T13:37:03.119Z,14.60
2023-03-29T13:39:32.354Z,14.60
2023-03-29T13:42:20.329Z,14.70
2023-03-29T13:44:49.569Z,14.80
2023-03-29T13:47:41.808Z,14.90
2023-03-29T13:50:19.829Z,14.90
2023-03-29T13:52:57.826Z,14.90
2023-03-29T13:55:32.275Z,15.00
2023-03-29T13:58:04.058Z,15.00
2023-03-29T14:00:40.083Z,15.00
2023-03-29T14:03:12.151Z,14.90
2023-03-29T14:05:44.348Z,14.90
2023-03-29T14:08:21.310Z,14.80
2023-03-29T14:10:48.622Z,14.80
2023-03-29T14:13:17.392Z,14.90
2023-03-29T14:15:52.717Z,14.90
2023-03-29T14:18:22.447Z,14.90
2023-03-29T14:20:54.859Z,14.90
2023-03-29T14:23:25.253Z,14.90
2023-03-29T14:25:52.788Z,14.90
2023-03-29T14:28:23.685Z,14.90
2023-03-29T14:30:52.794Z,15.00
2023-03-29T14:33:34.832Z,15.10
2023-03-29T14:36:06.274Z,15.20
2023-03-29T14:38:47.451Z,15.20
2023-03-29T14:41:18.186Z,15.30
2023-03-29T14:43:46.366Z,15.30
2023-03-29T14:46:20.504Z,15.30
2023-03-29T14:48:48.661Z,15.40
2023-03-29T14:51:15.762Z,15.50
2023-03-29T14:53:46.713Z,15.60
2023-03-29T14:56:17.538Z,15.60
2023-03-29T14:58:49.297Z,15.60
2023-03-29T15:01:19.906Z,15.60
2023-03-29T15:03:55.122Z,15.50
2023-03-29T15:06:24.398Z,15.60
2023-03-29T15:09:04.382Z,15.60
2023-03-29T15:11:33.937Z,15.60
2023-03-29T15:14:06.886Z,15.70
2023-03-29T15:16:40.218Z,15.70
2023-03-29T15:19:14.723Z,15.80
2023-03-29T15:21:43.110Z,15.80
2023-03-29T15:24:21.622Z,15.80
2023-03-29T15:26:59.400Z,15.80
2023-03-29T15:29:36.875Z,15.70
2023-03-29T15:32:05.336Z,15.60
2023-03-29T15:34:33.574Z,15.60
2023-03-29T15:37:01.599Z,15.60
2023-03-29T15:39:29.423Z,15.50
2023-03-29T15:42:02.102Z,15.50
2023-03-29T15:44:32.559Z,15.40
2023-03-29T15:47:10.133Z,15.40
2023-03-29T15:49:37.239Z,15.30
2023-03-29T15:52:13.568Z,15.30
2023-03-29T15:54:40.471Z,15.30
2023-03-29T15:57:12.533Z,15.20
2023-03-29T15:59:39.507Z,15.20
2023-03-29T16:02:12.190Z,15.10
2023-03-29T16:04:42.558Z,15.10
2023-03-29T16:07:15.384Z,15.00
2023-03-29T16:09:42.636Z,15.00
2023-03-29T16:12:10.368Z,15.00
2023-03-29T16:14:39.063Z,15.00
2023-03-29T16:17:07.460Z,15.00
2023-03-29T16:19:35.086Z,15.00
2023-03-29T16:22:07.435Z,14.90
2023-03-29T16:24:36.463Z,14.90
2023-03-29T16:27:06.664Z,14.80
2023-03-29T16:29:34.366Z,14.80
2023-03-29T16:32:02.163Z,14.80
2023-03-29T16:34:31.952Z,14.80
2023-03-29T16:36:59.241Z,14.80
2023-03-29T16:39:36.085Z,14.70
2023-03-29T16:42:02.950Z,14.80
2023-03-29T16:44:44.009Z,14.70
2023-03-29T16:47:17.784Z,14.70
2023-03-29T16:49:48.950Z,14.70
2023-03-29T16:52:17.240Z,14.70
2023-03-29T16:54:44.462Z,14.70
2023-03-29T16:57:14.641Z,14.70
2023-03-29T16:59:47.480Z,14.70
2023-03-29T17:02:14.540Z,14.70
2023-03-29T17:04:45.742Z,14.70
2023-03-29T17:07:13.134Z,14.60
2023-03-29T17:09:41.262Z,14.60
2023-03-29T17:12:08.363Z,14.60
2023-03-29T17:14:37.682Z,14.60
2023-03-29T17:17:07.690Z,14.60
2023-03-29T17:19:37.371Z,14.60
2023-03-29T17:22:05.931Z,14.50
2023-03-29T17:24:33.400Z,14.60
2023-03-29T17:27:01.472Z,14.50
2023-03-29T17:29:28.908Z,14.60
2023-03-29T17:31:56.563Z,14.50
2023-03-29T17:34:24.985Z,14.50
2023-03-29T17:36:53.305Z,14.50
2023-03-29T17:39:22.194Z,14.50
2023-03-29T17:41:52.223Z,14.50
2023-03-29T17:44:22.085Z,14.50
2023-03-29T17:46:49.052Z,14.40
2023-03-29T17:49:15.957Z,14.40
2023-03-29T17:51:42.933Z,14.40
2023-03-29T17:54:10.634Z,14.40
2023-03-29T17:56:38.918Z,14.30
2023-03-29T17:59:05.934Z,14.30
2023-03-29T18:01:33.558Z,14.20
2023-03-29T18:04:00.544Z,14.20
2023-03-29T18:06:27.677Z,14.20
2023-03-29T18:08:59.416Z,14.10
2023-03-29T18:11:27.232Z,14.10
2023-03-29T18:14:03.206Z,14.00
2023-03-29T18:16:30.429Z,14.00
2023-03-29T18:19:10.328Z,13.90
2023-03-29T18:21:42.435Z,13.90
2023-03-29T18:24:09.599Z,13.90
2023-03-29T18:26:36.554Z,13.90
2023-03-29T18:29:04.806Z,13.80
2023-03-29T18:31:31.800Z,13.80
2023-03-29T18:33:58.828Z,13.70
2023-03-29T18:36:26.120Z,13.70
2023-03-29T18:38:55.699Z,13.70
2023-03-29T18:41:25.983Z,13.70
2023-03-29T18:43:57.356Z,13.60
2023-03-29T18:46:30.321Z,13.60
2023-03-29T18:48:58.430Z,13.60
2023-03-29T18:51:29.182Z,13.60
2023-03-29T18:53:56.644Z,13.60
2023-03-29T18:56:23.837Z,13.60
2023-03-29T18:58:53.350Z,13.50
2023-03-29T19:01:27.488Z,13.50
2023-03-29T19:03:54.661Z,13.50
2023-03-29T19:06:25.895Z,13.60
2023-03-29T19:08:53.995Z,13.60
2023-03-29T19:11:21.679Z,13.60
2023-03-29T19:13:50.659Z,13.60
2023-03-29T19:16:20.668Z,13.60
2023-03-29T19:18:49.292Z,13.50
2023-03-29T19:21:16.225Z,13.60
2023-03-29T19:23:43.507Z,13.60
2023-03-29T19:26:11.590Z,13.50
2023-03-29T19:28:38.570Z,13.50
2023-03-29T19:31:05.976Z,13.60
2023-03-29T19:33:33.007Z,13.50
2023-03-29T19:36:03.916Z,13.60
2023-03-29T19:38:31.395Z,13.60
2023-03-29T19:40:58.346Z,13.50
2023-03-29T19:43:25.834Z,13.50
2023-03-29T19:45:52.948Z,13.50
2023-03-29T19:48:33.908Z,13.50
2023-03-29T19:51:03.762Z,13.50
2023-03-29T19:53:32.386Z,13.50
2023-03-29T19:55:59.693Z,13.50
2023-03-29T19:58:26.619Z,13.50
2023-03-29T20:00:57.988Z,13.50
2023-03-29T20:03:28.234Z,13.50
2023-03-29T20:05:56.483Z,13.50
2023-03-29T20:08:25.236Z,13.50
2023-03-29T20:11:00.029Z,13.50
2023-03-29T20:13:37.581Z,13.50
2023-03-29T20:16:06.372Z,13.40
2023-03-29T20:18:34.136Z,13.50
2023-03-29T20:21:02.101Z,13.40
2023-03-29T20:23:33.870Z,13.40
2023-03-29T20:26:00.753Z,13.40
2023-03-29T20:28:27.857Z,13.50
2023-03-29T20:30:54.753Z,13.40
2023-03-29T20:33:24.854Z,13.50
2023-03-29T20:35:52.338Z,13.50
2023-03-29T20:38:21.867Z,13.50
2023-03-29T20:41:09.190Z,13.50
2023-03-29T20:43:40.923Z,13.50
2023-03-29T20:46:23.821Z,13.50
2023-03-29T20:48:53.845Z,13.50
2023-03-29T20:51:33.221Z,13.50
2023-03-29T20:54:05.047Z,13.50
2023-03-29T20:56:58.879Z,13.50
2023-03-29T20:59:27.718Z,13.50
2023-03-29T21:02:01.685Z,13.50
2023-03-29T21:04:31.425Z,13.50
2023-03-29T21:07:00.411Z,13.50
2023-03-29T21:09:36.576Z,13.50
2023-03-29T21:12:05.792Z,13.50
2023-03-29T21:14:33.109Z,13.50
2023-03-29T21:17:00.310Z,13.50
2023-03-29T21:19:27.753Z,13.50
2023-03-29T21:21:54.977Z,13.50
2023-03-29T21:24:21.904Z,13.50
2023-03-29T21:26:48.721Z,13.50
2023-03-29T21:29:16.955Z,13.50
2023-03-29T21:31:44.076Z,13.40
2023-03-29T21:34:13.597Z,13.40
2023-03-29T21:36:43.251Z,13.40
2023-03-29T21:39:10.332Z,13.40
2023-03-29T21:41:37.402Z,13.40
2023-03-29T21:44:04.226Z,13.40
2023-03-29T21:46:37.747Z,13.40
2023-03-29T21:49:13.818Z,13.40
2023-03-29T21:51:40.677Z,13.40
2023-03-29T21:54:11.332Z,13.40
2023-03-29T21:56:38.204Z,13.50
2023-03-29T21:59:05.090Z,13.40
2023-03-29T22:01:38.371Z,13.50
2023-03-29T22:04:05.380Z,13.50
2023-03-29T22:06:34.984Z,13.50
2023-03-29T22:09:05.029Z,13.50
2023-03-29T22:11:32.845Z,13.50
2023-03-29T22:13:59.701Z,13.60
2023-03-29T22:16:28.032Z,13.60
2023-03-29T22:18:57.737Z,13.60
2023-03-29T22:21:26.956Z,13.60
2023-03-29T22:23:55.771Z,13.60
2023-03-29T22:26:24.750Z,13.60
2023-03-29T22:28:51.766Z,13.60
2023-03-29T22:31:21.123Z,13.60
2023-03-29T22:33:48.448Z,13.50
2023-03-29T22:36:22.405Z,13.50
2023-03-29T22:38:50.426Z,13.50
2023-03-29T22:41:18.109Z,13.50
2023-03-29T22:43:45.496Z,13.50
2023-03-29T22:46:13.939Z,13.40
2023-03-29T22:48:41.250Z,13.40
2023-03-29T22:51:08.147Z,13.40
2023-03-29T22:53:37.010Z,13.40
2023-03-29T22:56:04.771Z,13.40
2023-03-29T22:58:31.809Z,13.30
2023-03-29T23:01:02.199Z,13.40
2023-03-29T23:03:37.554Z,13.30
2023-03-29T23:06:05.375Z,13.30
2023-03-29T23:08:34.995Z,13.30
2023-03-29T23:11:04.609Z,13.20
2023-03-29T23:13:35.574Z,13.20
2023-03-29T23:16:04.101Z,13.20
2023-03-29T23:18:35.456Z,13.20
2023-03-29T23:21:07.749Z,13.30
2023-03-29T23:23:38.488Z,13.30
2023-03-29T23:26:09.001Z,13.20
2023-03-29T23:28:36.509Z,13.20
2023-03-29T23:31:08.358Z,13.20
2023-03-29T23:33:36.354Z,13.20
2023-03-29T23:36:06.085Z,13.20
2023-03-29T23:38:35.091Z,13.20
2023-03-29T23:41:04.240Z,13.20
2023-03-29T23:43:37.168Z,13.10
2023-03-29T23:46:06.980Z,13.10
2023-03-29T23:48:34.401Z,13.10
2023-03-29T23:51:05.966Z,13.10
2023-03-29T23:53:33.197Z,13.10
2023-03-29T23:56:10.010Z,13.10
2023-03-29T23:58:38.447Z,13.10
